Time;durP1;ratioP1;P1;durP2;ratioP2;P2;SDS_P1;SDS_P2;PMS_P1;PMS_P2;Temp;Humidity;BMP_temperature;BMP_pressure;BME280_temperature;BME280_humidity;BME280_pressure;Samples;Min_cycle;Max_cycle;Signal;HPM_P1;HPM_P2
2024/01/18 00:00:16;;;;;;;;;;;;;;;24.41;22.49;95429.03;5064064;28;19927;-89
2024/01/18 00:02:42;;;;;;;;;;;;;;;24.85;22.41;95427.81;5076541;28;19920;-90
2024/01/18 00:05:08;;;;;;;;;;;;;;;25.53;21.97;95413.53;5084698;28;20307;-90
2024/01/18 00:07:34;;;;;;;;;;;;;;;25.94;21.34;95408.97;5085499;28;19931;-91
2024/01/18 00:10:00;;;;;;;;;;;;;;;26.17;21.00;95416.16;5054048;28;19983;-91
2024/01/18 00:12:26;;;;;;;;;;;;;;;26.29;20.93;95411.28;5056487;28;19921;-91
2024/01/18 00:14:52;;;;;;;;;;;;;;;26.22;21.03;95417.44;5056197;28;20020;-91
2024/01/18 00:17:18;;;;;;;;;;;;;;;26.40;21.19;95420.47;5054678;28;20037;-91
2024/01/18 00:19:44;;;;;;;;;;;;;;;26.38;21.19;95417.41;5052526;28;19996;-91
2024/01/18 00:22:10;;;;;;;;;;;;;;;26.42;21.34;95417.91;5052497;28;20024;-91
2024/01/18 00:24:36;;;;;;;;;;;;;;;26.46;20.97;95424.06;5054386;28;19963;-91
2024/01/18 00:27:02;;;;;;;;;;;;;;;26.34;21.27;95419.75;5057960;28;19921;-91
2024/01/18 00:29:30;;;;;;;;;;;;;;;26.49;21.14;95416.66;5066236;28;19917;-91
2024/01/18 00:31:56;;;;;;;;;;;;;;;26.30;21.25;95413.59;5061705;28;19970;-91
2024/01/18 00:34:22;;;;;;;;;;;;;;;26.08;21.38;95417.16;5055457;28;19925;-91
2024/01/18 00:36:49;;;;;;;;;;;;;;;25.97;21.53;95414.34;5059009;28;19921;-91
2024/01/18 00:39:18;;;;;;;;;;;;;;;26.09;21.43;95424.31;5061594;28;20365;-91
2024/01/18 00:41:45;;;;;;;;;;;;;;;26.48;21.03;95427.13;5061808;28;20346;-91
2024/01/18 00:44:11;;;;;;;;;;;;;;;26.70;20.64;95432.72;5061831;28;19921;-91
2024/01/18 00:46:37;;;;;;;;;;;;;;;26.74;20.55;95449.34;5062601;28;19928;-91
2024/01/18 00:49:04;;;;;;;;;;;;;;;26.60;20.75;95448.34;5061399;28;19975;-91
2024/01/18 00:51:30;;;;;;;;;;;;;;;26.10;21.35;95441.97;5062682;28;19928;-91
2024/01/18 00:53:56;;;;;;;;;;;;;;;26.20;21.02;95434.84;5059032;28;19917;-91
2024/01/18 00:56:22;;;;;;;;;;;;;;;26.27;20.81;95437.13;5052354;28;20015;-92
2024/01/18 00:58:49;;;;;;;;;;;;;;;26.03;21.06;95436.84;5059676;28;19983;-91
2024/01/18 01:01:16;;;;;;;;;;;;;;;26.15;21.05;95441.22;5061345;28;19927;-91
2024/01/18 01:03:42;;;;;;;;;;;;;;;26.43;21.00;95446.84;5054214;28;19952;-92
2024/01/18 01:06:11;;;;;;;;;;;;;;;26.55;20.78;95456.81;5060612;28;19925;-91
2024/01/18 01:08:37;;;;;;;;;;;;;;;26.64;20.81;95446.03;5066857;28;20392;-91
2024/01/18 01:11:03;;;;;;;;;;;;;;;26.85;20.79;95457.03;5081325;28;19939;-91
2024/01/18 01:13:30;;;;;;;;;;;;;;;26.78;20.77;95466.75;5080393;28;20396;-92
2024/01/18 01:15:56;;;;;;;;;;;;;;;26.49;21.18;95479.31;5092730;28;19971;-92
2024/01/18 01:18:22;;;;;;;;;;;;;;;26.51;21.28;95471.13;5085045;28;19943;-92
2024/01/18 01:20:48;;;;;;;;;;;;;;;26.78;20.65;95471.63;5094856;28;19939;-92
2024/01/18 01:23:15;;;;;;;;;;;;;;;27.07;19.91;95466.16;5094787;28;19916;-92
2024/01/18 01:25:41;;;;;;;;;;;;;;;26.96;19.60;95465.44;5093470;28;19923;-92
2024/01/18 01:28:07;;;;;;;;;;;;;;;26.52;20.75;95472.66;5092176;28;19927;-92
2024/01/18 01:30:33;;;;;;;;;;;;;;;26.62;20.80;95470.34;5090901;28;19920;-92
2024/01/18 01:32:59;;;;;;;;;;;;;;;26.73;20.57;95468.28;5091345;28;20296;-92
2024/01/18 01:35:25;;;;;;;;;;;;;;;26.88;20.47;95475.72;5092458;28;19924;-92
2024/01/18 01:37:51;;;;;;;;;;;;;;;26.93;20.76;95467.25;5094558;28;19925;-92
2024/01/18 01:40:18;;;;;;;;;;;;;;;26.95;20.65;95473.13;5094572;28;20038;-92
2024/01/18 01:42:44;;;;;;;;;;;;;;;26.94;20.85;95470.81;5095939;28;20355;-92
2024/01/18 01:45:10;;;;;;;;;;;;;;;26.98;20.73;95472.09;5096353;28;19917;-92
2024/01/18 01:47:36;;;;;;;;;;;;;;;27.08;20.91;95472.56;5083167;28;19928;-92
2024/01/18 01:50:03;;;;;;;;;;;;;;;27.22;20.64;95463.81;5079581;28;19966;-92
2024/01/18 01:52:31;;;;;;;;;;;;;;;27.32;19.82;95465.06;5058060;28;20019;-91
2024/01/18 01:54:57;;;;;;;;;;;;;;;27.12;20.66;95453.38;5075622;28;19962;-91
2024/01/18 01:57:24;;;;;;;;;;;;;;;27.14;20.75;95451.53;5075924;28;20387;-91
2024/01/18 01:59:50;;;;;;;;;;;;;;;27.34;19.92;95456.09;5070823;28;19917;-91
2024/01/18 02:02:17;;;;;;;;;;;;;;;27.45;19.38;95441.97;5074331;28;19916;-91
2024/01/18 02:04:44;;;;;;;;;;;;;;;27.40;19.55;95442.75;5078740;28;19924;-92
2024/01/18 02:07:11;;;;;;;;;;;;;;;27.32;19.76;95431.25;5078251;28;19921;-91
2024/01/18 02:09:39;;;;;;;;;;;;;;;27.25;19.28;95434.63;5082529;28;20375;-91
2024/01/18 02:12:07;;;;;;;;;;;;;;;26.65;19.65;95433.47;5094068;28;20007;-91
2024/01/18 02:14:33;;;;;;;;;;;;;;;26.62;20.32;95428.91;5092214;28;19924;-91
2024/01/18 02:16:59;;;;;;;;;;;;;;;26.63;20.46;95427.59;5093572;28;19980;-91
2024/01/18 02:19:25;;;;;;;;;;;;;;;26.69;20.42;95428.38;5098332;28;19920;-91
2024/01/18 02:21:51;;;;;;;;;;;;;;;26.64;20.47;95419.94;5095638;28;20396;-91
2024/01/18 02:24:19;;;;;;;;;;;;;;;26.01;21.65;95426.09;5084858;28;19920;-91
2024/01/18 02:26:45;;;;;;;;;;;;;;;26.10;21.14;95416.66;5093760;28;19928;-91
2024/01/18 02:29:11;;;;;;;;;;;;;;;26.43;20.81;95422.28;5100701;28;19920;-91
2024/01/18 02:31:37;;;;;;;;;;;;;;;26.49;20.79;95417.41;5110058;28;19920;-91
2024/01/18 02:34:07;;;;;;;;;;;;;;;26.04;21.36;95411.00;5102531;28;19978;-91
2024/01/18 02:36:34;;;;;;;;;;;;;;;25.52;21.23;95407.13;5081265;28;19924;-91
2024/01/18 02:39:00;;;;;;;;;;;;;;;24.85;22.17;95399.75;5106434;28;19946;-91
2024/01/18 02:41:26;;;;;;;;;;;;;;;25.08;22.04;95395.75;5073992;28;19924;-91
2024/01/18 02:43:53;;;;;;;;;;;;;;;25.30;22.58;95405.00;5094361;28;19940;-91
2024/01/18 02:46:19;;;;;;;;;;;;;;;25.05;23.20;95403.16;5098110;28;19916;-91
2024/01/18 02:48:45;;;;;;;;;;;;;;;25.02;23.31;95406.22;5089235;28;19917;-91
2024/01/18 02:51:11;;;;;;;;;;;;;;;25.19;23.28;95407.00;5085604;28;20465;-91
2024/01/18 02:53:37;;;;;;;;;;;;;;;25.24;23.26;95417.50;5088969;28;19929;-91
2024/01/18 02:56:03;;;;;;;;;;;;;;;25.72;23.01;95411.78;5096015;28;19920;-91
2024/01/18 02:58:29;;;;;;;;;;;;;;;26.12;22.39;95413.34;5081440;28;20390;-91
2024/01/18 03:00:55;;;;;;;;;;;;;;;26.48;21.88;95413.06;5080446;28;19921;-91
2024/01/18 03:03:21;;;;;;;;;;;;;;;26.65;21.23;95405.34;5081304;28;19927;-91
2024/01/18 03:05:47;;;;;;;;;;;;;;;26.46;21.50;95409.22;5072355;28;19964;-91
2024/01/18 03:08:13;;;;;;;;;;;;;;;26.46;21.46;95409.22;5091573;28;19927;-91
2024/01/18 03:10:39;;;;;;;;;;;;;;;26.60;21.25;95408.97;5078661;28;20007;-91
2024/01/18 03:13:05;;;;;;;;;;;;;;;26.50;21.31;95420.97;5081064;28;19920;-91
2024/01/18 03:15:31;;;;;;;;;;;;;;;26.03;21.98;95412.31;5083280;28;19936;-91
2024/01/18 03:17:57;;;;;;;;;;;;;;;26.05;22.01;95409.75;5082862;28;19927;-91
2024/01/18 03:20:23;;;;;;;;;;;;;;;26.44;21.47;95411.81;5058077;28;19924;-91
2024/01/18 03:22:49;;;;;;;;;;;;;;;26.68;20.82;95412.75;5077397;28;19916;-91
2024/01/18 03:25:15;;;;;;;;;;;;;;;27.01;20.90;95420.38;5086682;28;19920;-91
2024/01/18 03:27:41;;;;;;;;;;;;;;;27.04;20.69;95413.72;5070328;28;19940;-92
2024/01/18 03:30:07;;;;;;;;;;;;;;;27.04;20.72;95424.19;5087293;28;19920;-91
2024/01/18 03:32:33;;;;;;;;;;;;;;;26.95;20.53;95422.44;5074341;28;19967;-91
2024/01/18 03:34:59;;;;;;;;;;;;;;;26.68;20.29;95426.84;5072798;28;20415;-91
2024/01/18 03:37:26;;;;;;;;;;;;;;;25.80;21.71;95426.84;5074466;28;19920;-91
2024/01/18 03:39:52;;;;;;;;;;;;;;;25.17;22.36;95421.56;5086126;28;19966;-91
2024/01/18 03:42:18;;;;;;;;;;;;;;;25.36;22.34;95422.66;5088228;28;19916;-91
2024/01/18 03:44:44;;;;;;;;;;;;;;;25.75;22.31;95410.75;5078616;28;19925;-91
2024/01/18 03:47:10;;;;;;;;;;;;;;;25.88;22.12;95411.03;5079523;28;19916;-91
2024/01/18 03:49:36;;;;;;;;;;;;;;;25.92;22.77;95412.31;5083795;28;20396;-90
2024/01/18 03:52:02;;;;;;;;;;;;;;;26.10;22.15;95416.66;5074126;28;19975;-91
2024/01/18 03:54:28;;;;;;;;;;;;;;;26.01;22.47;95414.09;5070301;28;19924;-91
2024/01/18 03:56:54;;;;;;;;;;;;;;;26.06;22.73;95408.47;5077605;28;20377;-91
2024/01/18 03:59:20;;;;;;;;;;;;;;;26.28;22.66;95412.59;5074395;28;20062;-92
2024/01/18 04:01:46;;;;;;;;;;;;;;;26.17;22.68;95424.59;5093316;28;19955;-92
2024/01/18 04:04:13;;;;;;;;;;;;;;;26.19;23.27;95424.84;5093517;28;19924;-91
2024/01/18 04:06:39;;;;;;;;;;;;;;;26.37;23.21;95413.06;5056879;28;19921;-92
2024/01/18 04:09:06;;;;;;;;;;;;;;;26.85;22.74;95417.59;5074419;28;20291;-91
2024/01/18 04:11:32;;;;;;;;;;;;;;;27.03;22.44;95420.63;5063013;28;20265;-91
2024/01/18 04:13:58;;;;;;;;;;;;;;;27.28;22.12;95410.28;5068372;28;19924;-91
2024/01/18 04:16:25;;;;;;;;;;;;;;;27.18;21.80;95409.03;5070452;28;20019;-91
2024/01/18 04:18:51;;;;;;;;;;;;;;;27.28;21.78;95405.38;5074965;28;19928;-91
2024/01/18 04:21:17;;;;;;;;;;;;;;;27.26;21.98;95399.50;5079309;28;19980;-92
2024/01/18 04:23:43;;;;;;;;;;;;;;;27.46;21.92;95406.09;5083860;28;19916;-92
2024/01/18 04:26:09;;;;;;;;;;;;;;;27.30;21.57;95407.69;5073639;28;19948;-91
2024/01/18 04:28:35;;;;;;;;;;;;;;;27.21;22.33;95400.31;5055186;28;19940;-91
2024/01/18 04:31:01;;;;;;;;;;;;;;;27.23;21.99;95417.47;5072297;28;19916;-91
2024/01/18 04:33:27;;;;;;;;;;;;;;;27.30;21.79;95402.06;5065261;28;20372;-91
2024/01/18 04:35:53;;;;;;;;;;;;;;;27.15;22.27;95415.69;5054283;28;20008;-91
2024/01/18 04:38:19;;;;;;;;;;;;;;;27.26;22.20;95410.78;5070326;28;20019;-91
2024/01/18 04:40:45;;;;;;;;;;;;;;;27.42;21.89;95412.03;5063852;28;20007;-91
2024/01/18 04:43:11;;;;;;;;;;;;;;;27.36;21.87;95412.03;5059471;28;20019;-90
2024/01/18 04:45:38;;;;;;;;;;;;;;;27.19;22.35;95425.41;5057534;28;19927;-91
2024/01/18 04:48:04;;;;;;;;;;;;;;;27.16;22.82;95423.66;5052871;28;20274;-91
2024/01/18 04:50:30;;;;;;;;;;;;;;;27.38;22.56;95428.44;5064740;28;19938;-91
2024/01/18 04:52:57;;;;;;;;;;;;;;;27.54;22.64;95427.56;5050199;28;20292;-91
2024/01/18 04:55:23;;;;;;;;;;;;;;;27.43;22.30;95430.44;5050058;28;19925;-90
2024/01/18 04:57:49;;;;;;;;;;;;;;;26.95;22.65;95427.31;5048482;28;19930;-91
2024/01/18 05:00:15;;;;;;;;;;;;;;;26.62;22.91;95426.09;5054412;28;20005;-91
2024/01/18 05:02:41;;;;;;;;;;;;;;;26.28;23.40;95430.22;5056484;28;19921;-90
2024/01/18 05:05:08;;;;;;;;;;;;;;;26.40;23.70;95447.84;5066070;28;19980;-90
2024/01/18 05:07:34;;;;;;;;;;;;;;;26.59;23.77;95437.59;5048408;28;19924;-91
2024/01/18 05:10:03;;;;;;;;;;;;;;;26.99;23.23;95445.47;5070801;28;19966;-90
2024/01/18 05:12:30;;;;;;;;;;;;;;;27.35;23.24;95449.19;5070880;28;19921;-91
2024/01/18 05:14:56;;;;;;;;;;;;;;;27.55;22.81;95443.22;5074453;28;19920;-91
2024/01/18 05:17:22;;;;;;;;;;;;;;;27.65;22.68;95450.09;5072570;28;20007;-91
2024/01/18 05:19:48;;;;;;;;;;;;;;;27.82;22.62;95439.44;5071971;28;19992;-90
2024/01/18 05:22:14;;;;;;;;;;;;;;;27.66;22.81;95445.19;5070861;28;19928;-91
2024/01/18 05:24:40;;;;;;;;;;;;;;;27.69;22.80;95444.91;5072386;28;19967;-91
2024/01/18 05:27:07;;;;;;;;;;;;;;;27.68;22.00;95445.47;5068617;28;20367;-90
2024/01/18 05:29:33;;;;;;;;;;;;;;;27.59;22.13;95449.31;5065760;28;19920;-89
2024/01/18 05:31:59;;;;;;;;;;;;;;;26.98;23.06;95446.75;5067596;28;19921;-91
2024/01/18 05:34:26;;;;;;;;;;;;;;;26.69;23.70;95447.31;5067475;28;19932;-90
2024/01/18 05:36:52;;;;;;;;;;;;;;;26.98;23.49;95449.56;5054341;28;19966;-91
2024/01/18 05:39:18;;;;;;;;;;;;;;;27.16;23.24;95454.63;5069647;28;19927;-89
2024/01/18 05:41:44;;;;;;;;;;;;;;;27.39;23.25;95456.09;5071263;28;19931;-89
2024/01/18 05:44:10;;;;;;;;;;;;;;;27.48;23.33;95465.53;5071375;28;20007;-88
2024/01/18 05:46:37;;;;;;;;;;;;;;;27.66;22.83;95459.28;5062919;28;20011;-90
2024/01/18 05:49:03;;;;;;;;;;;;;;;27.46;23.12;95468.09;5069813;28;19972;-90
2024/01/18 05:51:29;;;;;;;;;;;;;;;27.27;23.25;95470.72;5071079;28;19920;-91
2024/01/18 05:53:56;;;;;;;;;;;;;;;27.17;23.57;95469.47;5063250;28;19921;-88
2024/01/18 05:56:22;;;;;;;;;;;;;;;26.88;23.94;95472.91;5074836;28;19971;-88
2024/01/18 05:58:48;;;;;;;;;;;;;;;27.14;24.03;95474.09;5073237;28;19964;-90
2024/01/18 06:01:14;;;;;;;;;;;;;;;27.02;23.74;95478.25;5072776;28;19931;-89
2024/01/18 06:03:40;;;;;;;;;;;;;;;27.08;24.50;95481.03;5074758;28;20590;-89
2024/01/18 06:06:06;;;;;;;;;;;;;;;27.13;24.18;95483.06;5074149;28;19931;-91
2024/01/18 06:08:32;;;;;;;;;;;;;;;27.31;23.79;95490.94;5067648;28;20008;-88
2024/01/18 06:10:58;;;;;;;;;;;;;;;27.11;23.46;95486.41;5057925;28;20370;-89
2024/01/18 06:16:27;;;;;;;;;;;;;;;26.81;23.62;95487.50;5053653;28;19928;-88
2024/01/18 06:18:54;;;;;;;;;;;;;;;26.59;23.90;95494.66;5055650;28;19921;-88
2024/01/18 06:21:21;;;;;;;;;;;;;;;26.69;24.43;95500.78;5055318;28;20048;-88
2024/01/18 06:23:49;;;;;;;;;;;;;;;26.85;24.06;95505.66;5049985;28;19975;-88
2024/01/18 06:26:15;;;;;;;;;;;;;;;27.00;23.89;95499.75;5053042;28;19921;-88
2024/01/18 06:28:41;;;;;;;;;;;;;;;26.92;24.19;95507.19;5055859;28;19913;-88
2024/01/18 06:31:08;;;;;;;;;;;;;;;26.66;24.36;95502.59;5045327;28;19967;-88
2024/01/18 06:33:34;;;;;;;;;;;;;;;26.94;24.38;95502.56;5055484;28;19933;-88
2024/01/18 06:36:00;;;;;;;;;;;;;;;27.29;23.79;95497.09;5054619;28;19924;-88
2024/01/18 06:38:26;;;;;;;;;;;;;;;27.28;23.85;95506.06;5054901;28;20372;-87
2024/01/18 06:40:54;;;;;;;;;;;;;;;27.31;24.11;95507.84;5054659;28;19931;-88
2024/01/18 06:43:20;;;;;;;;;;;;;;;27.17;23.91;95511.72;5052750;28;20020;-87
2024/01/18 06:45:46;;;;;;;;;;;;;;;27.15;24.24;95506.63;5053898;28;19917;-87
2024/01/18 06:48:12;;;;;;;;;;;;;;;27.17;24.24;95520.19;5053405;28;20015;-87
2024/01/18 06:50:38;;;;;;;;;;;;;;;27.35;23.93;95516.81;5055034;28;19974;-87
2024/01/18 06:53:04;;;;;;;;;;;;;;;27.52;23.72;95523.16;5047246;28;19925;-87
2024/01/18 06:55:30;;;;;;;;;;;;;;;27.74;23.68;95525.91;5051164;28;20265;-87
2024/01/18 06:57:58;;;;;;;;;;;;;;;27.90;23.39;95513.75;5053738;28;19924;-87
2024/01/18 07:00:24;;;;;;;;;;;;;;;27.93;22.92;95517.59;5074887;28;20403;-87
2024/01/18 07:02:51;;;;;;;;;;;;;;;27.84;22.69;95520.72;5074718;28;20292;-87
2024/01/18 07:05:17;;;;;;;;;;;;;;;27.48;22.71;95525.50;5067285;28;19920;-88
2024/01/18 07:07:43;;;;;;;;;;;;;;;27.22;23.38;95527.84;5054978;28;20285;-86
2024/01/18 07:10:09;;;;;;;;;;;;;;;27.10;23.81;95526.34;5074707;28;19920;-87
2024/01/18 07:12:35;;;;;;;;;;;;;;;26.94;23.95;95524.31;5074693;28;20330;-87
2024/01/18 07:15:01;;;;;;;;;;;;;;;27.15;24.12;95534.78;5074395;28;19950;-87
2024/01/18 07:17:27;;;;;;;;;;;;;;;27.31;24.08;95528.34;5074472;28;19951;-87
2024/01/18 07:19:56;;;;;;;;;;;;;;;27.27;24.09;95533.47;5073816;28;19924;-87
2024/01/18 07:22:22;;;;;;;;;;;;;;;27.08;23.90;95529.69;5085203;28;19916;-87
2024/01/18 07:24:49;;;;;;;;;;;;;;;27.25;23.79;95530.41;5067739;28;20449;-87
2024/01/18 07:27:15;;;;;;;;;;;;;;;27.34;23.48;95532.16;5063807;28;19917;-87
2024/01/18 07:29:42;;;;;;;;;;;;;;;27.29;23.64;95535.78;5073731;28;19964;-87
2024/01/18 07:32:08;;;;;;;;;;;;;;;27.30;23.49;95534.50;5055907;28;19970;-87
2024/01/18 07:34:35;;;;;;;;;;;;;;;27.48;23.35;95536.00;5074040;28;19928;-87
2024/01/18 07:37:01;;;;;;;;;;;;;;;27.58;23.17;95538.03;5074219;28;19916;-87
2024/01/18 07:39:27;;;;;;;;;;;;;;;27.67;22.89;95549.00;5073225;28;19920;-87
2024/01/18 07:41:53;;;;;;;;;;;;;;;27.72;22.57;95536.16;5074030;28;19920;-86
2024/01/18 07:44:20;;;;;;;;;;;;;;;27.82;22.20;95545.88;5074239;28;19916;-86
2024/01/18 07:46:46;;;;;;;;;;;;;;;27.61;22.70;95544.66;5074013;28;19923;-86
2024/01/18 07:49:12;;;;;;;;;;;;;;;27.62;22.79;95546.97;5072957;28;19920;-87
2024/01/18 07:51:38;;;;;;;;;;;;;;;27.71;22.62;95552.31;5063100;28;19921;-87
2024/01/18 07:54:04;;;;;;;;;;;;;;;27.84;22.90;95554.56;5073691;28;19997;-87
2024/01/18 07:56:30;;;;;;;;;;;;;;;27.93;22.83;95549.41;5055964;28;19917;-87
2024/01/18 07:58:56;;;;;;;;;;;;;;;27.71;22.91;95548.72;5085186;28;19916;-86
2024/01/18 08:01:22;;;;;;;;;;;;;;;27.80;22.96;95542.78;5082847;28;19920;-86
2024/01/18 08:03:48;;;;;;;;;;;;;;;27.98;23.21;95554.22;5073645;28;19920;-87
2024/01/18 08:06:14;;;;;;;;;;;;;;;27.92;23.10;95547.84;5068447;28;19974;-86
2024/01/18 08:08:40;;;;;;;;;;;;;;;28.09;23.08;95559.06;5073197;28;20007;-86
2024/01/18 08:11:10;;;;;;;;;;;;;;;28.13;22.85;95553.13;5073082;28;19928;-86
2024/01/18 08:13:36;;;;;;;;;;;;;;;28.13;22.31;95561.59;5073934;28;19916;-87
2024/01/18 08:16:02;;;;;;;;;;;;;;;27.94;21.42;95567.06;5073350;28;20371;-86
2024/01/18 08:18:28;;;;;;;;;;;;;;;27.45;22.22;95571.63;5073556;28;19958;-87
2024/01/18 08:20:54;;;;;;;;;;;;;;;27.38;22.31;95572.16;5073192;28;19921;-87
2024/01/18 08:23:22;;;;;;;;;;;;;;;27.47;23.03;95571.84;5067063;28;19920;-86
2024/01/18 08:25:48;;;;;;;;;;;;;;;26.98;22.75;95578.34;5073731;28;19924;-86
2024/01/18 08:28:14;;;;;;;;;;;;;;;27.10;23.35;95583.44;5073455;28;20299;-86
2024/01/18 08:30:40;;;;;;;;;;;;;;;27.21;23.00;95579.84;5073026;28;20055;-85
2024/01/18 08:33:09;;;;;;;;;;;;;;;27.32;23.38;95585.47;5073185;28;19920;-85
2024/01/18 08:35:36;;;;;;;;;;;;;;;27.55;23.02;95592.59;5073012;28;19921;-85
2024/01/18 08:38:02;;;;;;;;;;;;;;;27.22;23.29;95599.06;5072700;28;20019;-86
2024/01/18 08:40:28;;;;;;;;;;;;;;;27.39;22.75;95597.00;5073206;28;19916;-85
2024/01/18 08:42:54;;;;;;;;;;;;;;;27.44;23.25;95586.22;5072498;28;19923;-85
2024/01/18 08:45:20;;;;;;;;;;;;;;;27.37;23.29;95593.94;5073362;28;19920;-85
2024/01/18 08:47:47;;;;;;;;;;;;;;;27.48;23.52;95593.13;5066146;28;19971;-85
2024/01/18 08:50:16;;;;;;;;;;;;;;;27.67;23.18;95598.97;5053142;28;19917;-85
2024/01/18 08:52:42;;;;;;;;;;;;;;;27.84;23.19;95596.88;5067310;28;19916;-85
2024/01/18 08:55:08;;;;;;;;;;;;;;;27.85;22.93;95616.06;5072393;28;20011;-85
2024/01/18 08:57:34;;;;;;;;;;;;;;;27.83;23.30;95618.66;5073059;28;19920;-85
2024/01/18 09:00:01;;;;;;;;;;;;;;;27.76;23.56;95624.84;5073072;28;19916;-85
2024/01/18 09:02:27;;;;;;;;;;;;;;;27.55;23.60;95612.34;5073103;28;20272;-85
2024/01/18 09:04:53;;;;;;;;;;;;;;;27.67;23.33;95624.34;5072338;28;20300;-85
2024/01/18 09:07:19;;;;;;;;;;;;;;;27.53;23.83;95629.00;5072915;28;19917;-85
2024/01/18 09:09:45;;;;;;;;;;;;;;;27.77;23.38;95629.16;5072725;28;19946;-85
2024/01/18 09:12:11;;;;;;;;;;;;;;;27.64;23.80;95626.16;5072774;28;20054;-86
2024/01/18 09:14:37;;;;;;;;;;;;;;;27.58;23.83;95641.53;5072860;28;19924;-85
2024/01/18 09:17:03;;;;;;;;;;;;;;;27.26;23.75;95653.09;5072596;28;20120;-84
2024/01/18 09:19:32;;;;;;;;;;;;;;;26.38;25.21;95650.94;5054842;28;19923;-85
2024/01/18 09:21:59;;;;;;;;;;;;;;;25.95;25.73;95647.44;5067982;28;19927;-85
2024/01/18 09:24:25;;;;;;;;;;;;;;;25.89;26.12;95651.50;5054788;28;19916;-84
2024/01/18 09:26:51;;;;;;;;;;;;;;;25.73;25.81;95647.34;5072110;28;19931;-84
2024/01/18 09:29:17;;;;;;;;;;;;;;;25.61;26.48;95664.66;5073503;28;20288;-84
2024/01/18 09:31:43;;;;;;;;;;;;;;;25.62;26.16;95663.41;5076375;28;19916;-85
2024/01/18 09:34:10;;;;;;;;;;;;;;;25.98;26.02;95668.16;5076459;28;19924;-84
2024/01/18 09:36:37;;;;;;;;;;;;;;;26.61;24.85;95679.91;5075934;28;19920;-85
2024/01/18 09:39:08;;;;;;;;;;;;;;;27.20;24.17;95679.72;5077151;28;19966;-85
2024/01/18 09:41:34;;;;;;;;;;;;;;;27.01;24.45;95681.53;5076890;28;20326;-84
2024/01/18 09:44:03;;;;;;;;;;;;;;;24.19;29.12;95697.28;5058158;28;19931;-84
2024/01/18 09:46:29;;;;;;;;;;;;;;;21.59;32.97;95690.75;5076510;28;19960;-84
2024/01/18 09:48:56;;;;;;;;;;;;;;;19.89;35.24;95698.59;5075231;28;19952;-84
2024/01/18 09:51:23;;;;;;;;;;;;;;;19.48;36.33;95707.50;5076439;28;19916;-84
2024/01/18 09:53:54;;;;;;;;;;;;;;;19.60;36.75;95709.41;5075734;28;19971;-85
2024/01/18 09:56:20;;;;;;;;;;;;;;;18.41;38.75;95712.81;5076128;28;19917;-84
2024/01/18 09:58:46;;;;;;;;;;;;;;;18.44;39.95;95719.47;5075858;28;19928;-84
2024/01/18 10:01:18;;;;;;;;;;;;;;;17.71;41.45;95713.34;5075827;28;20463;-85
2024/01/18 10:03:45;;;;;;;;;;;;;;;18.08;39.32;95722.78;5075957;28;19975;-85
2024/01/18 10:06:11;;;;;;;;;;;;;;;18.42;39.39;95716.38;5076058;28;19921;-85
2024/01/18 10:08:37;;;;;;;;;;;;;;;18.26;41.91;95714.59;5075134;28;19958;-84
2024/01/18 10:11:03;;;;;;;;;;;;;;;18.57;39.88;95721.00;5075411;28;19974;-84
2024/01/18 10:13:29;;;;;;;;;;;;;;;19.87;36.39;95715.00;5075903;28;19999;-84
2024/01/18 10:15:55;;;;;;;;;;;;;;;20.01;35.03;95727.53;5075373;28;19960;-84
2024/01/18 10:18:21;;;;;;;;;;;;;;;18.91;37.14;95734.00;5075437;28;19924;-84
2024/01/18 10:20:47;;;;;;;;;;;;;;;20.82;33.31;95709.22;5078610;28;19920;-85
2024/01/18 10:23:13;;;;;;;;;;;;;;;21.15;32.15;95718.41;5086774;28;19929;-85
2024/01/18 10:25:40;;;;;;;;;;;;;;;22.01;30.30;95720.13;5094790;28;20387;-85
2024/01/18 10:28:06;;;;;;;;;;;;;;;22.55;29.76;95720.91;5096008;28;19916;-85
2024/01/18 10:30:33;;;;;;;;;;;;;;;22.61;29.25;95724.63;5076841;28;19959;-85
2024/01/18 10:33:00;;;;;;;;;;;;;;;22.10;29.99;95724.13;5095830;28;19920;-85
2024/01/18 10:35:28;;;;;;;;;;;;;;;22.38;29.54;95729.00;5095499;28;19920;-85
2024/01/18 10:38:04;;;;;;;;;;;;;;;22.36;29.28;95731.50;5095539;28;20077;-85
2024/01/18 10:40:33;;;;;;;;;;;;;;;22.25;29.59;95738.88;5094545;28;19927;-85
2024/01/18 10:43:00;;;;;;;;;;;;;;;23.08;27.98;95734.88;5077434;28;19916;-85
2024/01/18 10:45:30;;;;;;;;;;;;;;;21.43;30.82;95744.97;5095717;28;19922;-84
2024/01/18 10:47:57;;;;;;;;;;;;;;;21.59;30.92;95739.00;5095206;28;19923;-85
2024/01/18 10:50:23;;;;;;;;;;;;;;;21.78;30.46;95736.88;5095504;28;19917;-85
2024/01/18 10:52:50;;;;;;;;;;;;;;;22.01;29.44;95750.09;5093653;28;19927;-85
2024/01/18 10:55:16;;;;;;;;;;;;;;;22.76;28.49;95745.00;5077074;28;19946;-86
2024/01/18 10:57:42;;;;;;;;;;;;;;;22.74;28.13;95747.50;5095926;28;19956;-85
2024/01/18 11:00:08;;;;;;;;;;;;;;;22.63;28.81;95756.47;5109433;28;19916;-85
2024/01/18 11:02:39;;;;;;;;;;;;;;;21.38;31.17;95756.03;5100379;28;19977;-85
2024/01/18 11:05:08;;;;;;;;;;;;;;;20.33;33.31;95754.03;5095407;28;19961;-85
2024/01/18 11:07:35;;;;;;;;;;;;;;;20.29;31.86;95767.34;5076941;28;19927;-85
2024/01/18 11:10:01;;;;;;;;;;;;;;;21.68;29.78;95755.69;5094562;28;19970;-85
2024/01/18 11:12:28;;;;;;;;;;;;;;;21.43;30.36;95755.34;5094134;28;19985;-85
2024/01/18 11:14:54;;;;;;;;;;;;;;;22.65;28.09;95753.97;5076755;28;20367;-85
2024/01/18 11:17:21;;;;;;;;;;;;;;;23.50;27.17;95756.97;5094351;28;19920;-86
2024/01/18 11:19:49;;;;;;;;;;;;;;;22.95;27.68;95751.94;5095053;28;20012;-86
2024/01/18 11:22:24;;;;;;;;;;;;;;;23.36;27.07;95747.34;5095006;28;19927;-86
2024/01/18 11:24:51;;;;;;;;;;;;;;;23.78;26.63;95746.94;5086526;28;19935;-86
2024/01/18 11:27:17;;;;;;;;;;;;;;;24.71;25.26;95747.34;5094674;28;19920;-85
2024/01/18 11:29:43;;;;;;;;;;;;;;;25.01;24.66;95742.31;5094225;28;19917;-85
2024/01/18 11:32:14;;;;;;;;;;;;;;;24.95;24.64;95737.94;5094547;28;19920;-85
2024/01/18 11:34:40;;;;;;;;;;;;;;;25.47;24.07;95738.63;5094081;28;19931;-85
2024/01/18 11:37:12;;;;;;;;;;;;;;;25.87;23.64;95736.38;5094600;28;19916;-85
2024/01/18 11:39:47;;;;;;;;;;;;;;;26.11;23.44;95741.66;5094479;28;20374;-85
2024/01/18 11:42:24;;;;;;;;;;;;;;;26.45;22.96;95734.88;5094572;28;19916;-85
2024/01/18 11:44:53;;;;;;;;;;;;;;;26.17;23.34;95739.63;5093500;28;20295;-85
2024/01/18 11:47:20;;;;;;;;;;;;;;;26.34;23.13;95736.88;5094049;28;19974;-85
2024/01/18 11:49:46;;;;;;;;;;;;;;;26.14;23.15;95739.88;5094170;28;19916;-85
2024/01/18 11:52:13;;;;;;;;;;;;;;;26.34;23.14;95734.84;5093597;28;19923;-85
2024/01/18 11:54:42;;;;;;;;;;;;;;;26.51;22.65;95744.09;5094511;28;19964;-84
2024/01/18 11:57:13;;;;;;;;;;;;;;;26.70;22.60;95735.97;5093590;28;20368;-85
2024/01/18 11:59:43;;;;;;;;;;;;;;;26.84;22.69;95732.19;5093499;28;19916;-85
2024/01/18 12:02:10;;;;;;;;;;;;;;;26.97;22.23;95724.03;5076258;28;19920;-85
2024/01/18 12:04:36;;;;;;;;;;;;;;;27.19;21.94;95723.28;5094008;28;19959;-85
2024/01/18 12:07:02;;;;;;;;;;;;;;;27.05;22.27;95729.94;5094007;28;19916;-84
2024/01/18 12:09:30;;;;;;;;;;;;;;;27.08;22.24;95734.53;5092857;28;19920;-85
2024/01/18 12:12:00;;;;;;;;;;;;;;;26.52;22.42;95734.38;5094118;28;19916;-85
2024/01/18 12:14:26;;;;;;;;;;;;;;;26.02;23.32;95731.31;5076017;28;19916;-85
2024/01/18 12:16:53;;;;;;;;;;;;;;;25.67;23.61;95735.72;5093924;28;19963;-85
2024/01/18 12:19:31;;;;;;;;;;;;;;;25.77;23.53;95732.22;5092801;28;19924;-85
2024/01/18 12:21:58;;;;;;;;;;;;;;;26.20;22.97;95730.19;5090885;28;19928;-85
2024/01/18 12:24:24;;;;;;;;;;;;;;;26.76;22.50;95736.00;5085392;28;19951;-85
2024/01/18 12:26:50;;;;;;;;;;;;;;;27.04;22.12;95734.03;5093664;28;19920;-85
2024/01/18 12:29:16;;;;;;;;;;;;;;;27.16;21.86;95730.72;5093628;28;19941;-85
2024/01/18 12:31:44;;;;;;;;;;;;;;;27.20;21.95;95733.25;5078672;28;19968;-85
2024/01/18 12:34:10;;;;;;;;;;;;;;;27.14;22.04;95740.94;5078652;28;19924;-85
2024/01/18 12:36:37;;;;;;;;;;;;;;;26.85;22.43;95749.84;5093402;28;20013;-85
2024/01/18 12:39:03;;;;;;;;;;;;;;;26.56;22.69;95736.94;5075020;28;19925;-85
2024/01/18 12:41:30;;;;;;;;;;;;;;;26.59;22.66;95735.94;5093542;28;19916;-85
2024/01/18 12:44:09;;;;;;;;;;;;;;;26.72;22.45;95741.88;5093404;28;19912;-85
2024/01/18 12:46:35;;;;;;;;;;;;;;;26.85;22.15;95747.03;5093440;28;19916;-85